Terminal Aerodrome Forecast
Issued by NWS

Home | Current Version | Previous Version | Text Only | Print | Product List | Glossary On
Versions: 1 2 3 4 5 6 7 8 9 10 11 12
628
FTUS43 KMPX 300520
TAFRNH
TAF
KRNH 300520Z 3006/3106 07011KT P6SM VCSH BKN018 OVC024
     FM301700 06012KT P6SM OVC025
     FM310100 05006KT P6SM OVC040=

USA.gov is the U.S. government's official web portal to all federal, state and local government web resources and services.